sensor_id;sensor_type;location;lat;lon;timestamp;pressure;altitude;pressure_sealevel;temperature;humidity
29121;BME280;16191;49.548;8.658;2023-07-08T00:02:11;100406.47;;;24.58;34.77
29121;BME280;16191;49.548;8.658;2023-07-08T00:04:39;100405.06;;;24.54;34.85
29121;BME280;16191;49.548;8.658;2023-07-08T00:07:11;100405.78;;;24.47;34.97
29121;BME280;16191;49.548;8.658;2023-07-08T00:09:39;100406.97;;;24.44;34.69
29121;BME280;16191;49.548;8.658;2023-07-08T00:12:10;100408.78;;;24.44;34.92
29121;BME280;16191;49.548;8.658;2023-07-08T00:14:37;100395.81;;;24.49;34.46
29121;BME280;16191;49.548;8.658;2023-07-08T00:17:10;100392.78;;;24.44;34.33
29121;BME280;16191;49.548;8.658;2023-07-08T00:19:38;100399.13;;;24.33;35.10
29121;BME280;16191;49.548;8.658;2023-07-08T00:22:10;100389.44;;;24.32;34.14
29121;BME280;16191;49.548;8.658;2023-07-08T00:24:37;100398.44;;;24.31;34.93
29121;BME280;16191;49.548;8.658;2023-07-08T00:27:04;100398.47;;;24.12;35.46
29121;BME280;16191;49.548;8.658;2023-07-08T00:29:31;100394.72;;;24.05;35.62
29121;BME280;16191;49.548;8.658;2023-07-08T00:31:58;100386.91;;;23.93;36.00
29121;BME280;16191;49.548;8.658;2023-07-08T00:34:24;100387.16;;;24.00;35.92
29121;BME280;16191;49.548;8.658;2023-07-08T00:36:51;100389.44;;;23.95;36.22
29121;BME280;16191;49.548;8.658;2023-07-08T00:39:17;100387.47;;;23.87;36.07
29121;BME280;16191;49.548;8.658;2023-07-08T00:41:45;100402.06;;;23.83;36.41
29121;BME280;16191;49.548;8.658;2023-07-08T00:44:12;100394.81;;;23.76;36.39
29121;BME280;16191;49.548;8.658;2023-07-08T00:49:45;100391.72;;;23.71;36.18
29121;BME280;16191;49.548;8.658;2023-07-08T00:52:24;100397.06;;;23.51;36.58
29121;BME280;16191;49.548;8.658;2023-07-08T00:54:54;100395.25;;;23.52;36.45
29121;BME280;16191;49.548;8.658;2023-07-08T00:57:23;100404.47;;;23.48;36.32
29121;BME280;16191;49.548;8.658;2023-07-08T01:00:00;100397.59;;;23.45;36.70
29121;BME280;16191;49.548;8.658;2023-07-08T01:02:32;100398.88;;;23.51;36.53
29121;BME280;16191;49.548;8.658;2023-07-08T01:05:10;100409.38;;;23.43;36.65
29121;BME280;16191;49.548;8.658;2023-07-08T01:07:39;100401.66;;;23.40;36.39
29121;BME280;16191;49.548;8.658;2023-07-08T01:10:14;100401.84;;;23.38;36.61
29121;BME280;16191;49.548;8.658;2023-07-08T01:12:46;100407.16;;;23.38;36.07
29121;BME280;16191;49.548;8.658;2023-07-08T01:15:15;100409.41;;;23.33;36.58
29121;BME280;16191;49.548;8.658;2023-07-08T01:17:43;100417.38;;;23.33;36.31
29121;BME280;16191;49.548;8.658;2023-07-08T01:20:11;100407.59;;;23.34;36.49
29121;BME280;16191;49.548;8.658;2023-07-08T01:22:41;100422.16;;;23.30;36.72
29121;BME280;16191;49.548;8.658;2023-07-08T01:25:08;100412.63;;;23.27;36.32
29121;BME280;16191;49.548;8.658;2023-07-08T01:27:38;100410.53;;;23.31;36.18
29121;BME280;16191;49.548;8.658;2023-07-08T01:30:06;100412.31;;;23.40;35.44
29121;BME280;16191;49.548;8.658;2023-07-08T01:32:36;100407.19;;;23.57;34.60
29121;BME280;16191;49.548;8.658;2023-07-08T01:35:04;100411.09;;;23.53;35.08
29121;BME280;16191;49.548;8.658;2023-07-08T01:37:36;100415.41;;;23.45;35.37
29121;BME280;16191;49.548;8.658;2023-07-08T01:40:26;100411.06;;;23.44;35.24
29121;BME280;16191;49.548;8.658;2023-07-08T01:42:53;100408.16;;;23.37;35.59
29121;BME280;16191;49.548;8.658;2023-07-08T01:45:22;100406.59;;;23.35;35.60
29121;BME280;16191;49.548;8.658;2023-07-08T01:48:05;100403.50;;;23.30;35.86
29121;BME280;16191;49.548;8.658;2023-07-08T01:50:59;100407.44;;;23.25;35.99
29121;BME280;16191;49.548;8.658;2023-07-08T01:53:47;100408.41;;;23.24;35.91
29121;BME280;16191;49.548;8.658;2023-07-08T01:56:33;100399.16;;;23.09;36.21
29121;BME280;16191;49.548;8.658;2023-07-08T01:59:20;100393.84;;;23.09;35.96
29121;BME280;16191;49.548;8.658;2023-07-08T02:02:06;100394.28;;;23.14;35.90
29121;BME280;16191;49.548;8.658;2023-07-08T02:04:33;100395.78;;;23.07;36.30
29121;BME280;16191;49.548;8.658;2023-07-08T02:07:00;100390.63;;;23.06;36.21
29121;BME280;16191;49.548;8.658;2023-07-08T02:09:26;100389.63;;;23.07;35.60
29121;BME280;16191;49.548;8.658;2023-07-08T02:11:54;100397.34;;;23.10;35.68
29121;BME280;16191;49.548;8.658;2023-07-08T02:14:21;100386.41;;;23.03;35.78
29121;BME280;16191;49.548;8.658;2023-07-08T02:16:48;100388.09;;;23.04;35.77
29121;BME280;16191;49.548;8.658;2023-07-08T02:19:14;100384.88;;;22.91;36.13
29121;BME280;16191;49.548;8.658;2023-07-08T02:21:41;100379.94;;;22.86;36.90
29121;BME280;16191;49.548;8.658;2023-07-08T02:24:08;100383.00;;;22.82;37.39
29121;BME280;16191;49.548;8.658;2023-07-08T02:26:37;100376.97;;;22.70;37.48
29121;BME280;16191;49.548;8.658;2023-07-08T02:29:04;100372.44;;;22.61;37.99
29121;BME280;16191;49.548;8.658;2023-07-08T02:31:30;100386.41;;;22.53;38.21
29121;BME280;16191;49.548;8.658;2023-07-08T02:33:57;100385.56;;;22.43;38.95
29121;BME280;16191;49.548;8.658;2023-07-08T02:36:24;100386.34;;;22.34;39.22
29121;BME280;16191;49.548;8.658;2023-07-08T02:38:51;100395.16;;;22.25;39.12
29121;BME280;16191;49.548;8.658;2023-07-08T02:41:18;100394.44;;;22.23;39.39
29121;BME280;16191;49.548;8.658;2023-07-08T02:43:44;100401.03;;;22.29;39.44
29121;BME280;16191;49.548;8.658;2023-07-08T02:46:11;100395.53;;;22.20;39.22
29121;BME280;16191;49.548;8.658;2023-07-08T02:48:38;100402.06;;;22.07;39.61
29121;BME280;16191;49.548;8.658;2023-07-08T02:51:05;100406.06;;;22.32;37.83
29121;BME280;16191;49.548;8.658;2023-07-08T02:53:32;100394.78;;;22.39;37.90
29121;BME280;16191;49.548;8.658;2023-07-08T02:55:59;100405.94;;;22.33;37.83
29121;BME280;16191;49.548;8.658;2023-07-08T02:58:26;100398.16;;;22.41;37.45
29121;BME280;16191;49.548;8.658;2023-07-08T03:00:56;100401.19;;;22.37;37.66
29121;BME280;16191;49.548;8.658;2023-07-08T03:03:27;100401.91;;;22.39;37.76
29121;BME280;16191;49.548;8.658;2023-07-08T03:05:59;100402.22;;;22.45;37.41
29121;BME280;16191;49.548;8.658;2023-07-08T03:08:27;100405.09;;;22.33;37.87
29121;BME280;16191;49.548;8.658;2023-07-08T03:10:58;100399.06;;;22.31;37.82
29121;BME280;16191;49.548;8.658;2023-07-08T03:13:27;100400.59;;;22.23;38.39
29121;BME280;16191;49.548;8.658;2023-07-08T03:15:55;100405.06;;;22.23;38.46
29121;BME280;16191;49.548;8.658;2023-07-08T03:18:23;100410.78;;;22.18;38.36
29121;BME280;16191;49.548;8.658;2023-07-08T03:20:54;100412.84;;;22.15;38.43
29121;BME280;16191;49.548;8.658;2023-07-08T03:23:23;100407.50;;;22.05;39.01
29121;BME280;16191;49.548;8.658;2023-07-08T03:25:52;100401.47;;;22.03;38.93
29121;BME280;16191;49.548;8.658;2023-07-08T03:28:20;100405.34;;;21.99;38.84
29121;BME280;16191;49.548;8.658;2023-07-08T03:30:51;100411.63;;;21.98;39.19
29121;BME280;16191;49.548;8.658;2023-07-08T03:33:19;100415.13;;;21.99;39.17
29121;BME280;16191;49.548;8.658;2023-07-08T03:35:46;100409.94;;;21.97;39.05
29121;BME280;16191;49.548;8.658;2023-07-08T03:38:15;100416.63;;;21.92;39.44
29121;BME280;16191;49.548;8.658;2023-07-08T03:40:41;100411.16;;;21.93;39.00
29121;BME280;16191;49.548;8.658;2023-07-08T03:43:08;100414.22;;;22.09;38.11
29121;BME280;16191;49.548;8.658;2023-07-08T03:45:36;100413.53;;;22.07;38.51
29121;BME280;16191;49.548;8.658;2023-07-08T03:48:03;100427.44;;;22.00;39.39
29121;BME280;16191;49.548;8.658;2023-07-08T03:50:31;100426.13;;;21.94;39.42
29121;BME280;16191;49.548;8.658;2023-07-08T03:52:57;100425.97;;;21.86;40.28
29121;BME280;16191;49.548;8.658;2023-07-08T03:55:27;100419.09;;;21.83;40.14
29121;BME280;16191;49.548;8.658;2023-07-08T03:57:56;100424.53;;;21.82;40.29
29121;BME280;16191;49.548;8.658;2023-07-08T04:00:25;100424.41;;;21.83;40.45
29121;BME280;16191;49.548;8.658;2023-07-08T04:02:52;100420.25;;;21.90;39.92
29121;BME280;16191;49.548;8.658;2023-07-08T04:05:22;100423.59;;;21.93;39.76
29121;BME280;16191;49.548;8.658;2023-07-08T04:07:49;100417.00;;;21.87;39.84
29121;BME280;16191;49.548;8.658;2023-07-08T04:10:16;100416.09;;;21.98;39.64
29121;BME280;16191;49.548;8.658;2023-07-08T04:12:43;100411.28;;;22.03;39.63
29121;BME280;16191;49.548;8.658;2023-07-08T04:15:11;100415.13;;;21.99;39.90
29121;BME280;16191;49.548;8.658;2023-07-08T04:17:48;100413.66;;;22.06;39.79
29121;BME280;16191;49.548;8.658;2023-07-08T04:20:17;100411.72;;;22.08;39.68
29121;BME280;16191;49.548;8.658;2023-07-08T04:22:45;100410.50;;;22.21;38.78
29121;BME280;16191;49.548;8.658;2023-07-08T04:25:12;100417.13;;;22.27;39.04
29121;BME280;16191;49.548;8.658;2023-07-08T04:27:40;100409.16;;;22.27;38.79
29121;BME280;16191;49.548;8.658;2023-07-08T04:30:09;100411.50;;;22.30;39.11
29121;BME280;16191;49.548;8.658;2023-07-08T04:32:40;100409.22;;;22.46;38.57
29121;BME280;16191;49.548;8.658;2023-07-08T04:35:10;100410.22;;;22.55;38.22
29121;BME280;16191;49.548;8.658;2023-07-08T04:37:36;100405.47;;;22.58;38.10
29121;BME280;16191;49.548;8.658;2023-07-08T04:40:04;100412.59;;;22.58;38.52
29121;BME280;16191;49.548;8.658;2023-07-08T04:42:31;100413.19;;;22.62;38.63
29121;BME280;16191;49.548;8.658;2023-07-08T04:44:58;100414.03;;;22.62;38.58
29121;BME280;16191;49.548;8.658;2023-07-08T04:47:24;100417.41;;;22.64;39.21
29121;BME280;16191;49.548;8.658;2023-07-08T04:49:55;100415.88;;;22.71;39.54
29121;BME280;16191;49.548;8.658;2023-07-08T04:52:22;100423.91;;;22.81;39.47
29121;BME280;16191;49.548;8.658;2023-07-08T04:54:49;100419.16;;;22.84;39.56
29121;BME280;16191;49.548;8.658;2023-07-08T04:57:15;100428.94;;;22.84;39.78
29121;BME280;16191;49.548;8.658;2023-07-08T04:59:43;100427.44;;;22.91;40.33
29121;BME280;16191;49.548;8.658;2023-07-08T05:02:09;100425.19;;;22.96;39.70
29121;BME280;16191;49.548;8.658;2023-07-08T05:04:36;100421.72;;;23.15;38.54
29121;BME280;16191;49.548;8.658;2023-07-08T05:07:03;100423.28;;;23.37;37.57
29121;BME280;16191;49.548;8.658;2023-07-08T05:09:29;100414.72;;;23.33;38.17
29121;BME280;16191;49.548;8.658;2023-07-08T05:11:58;100411.06;;;23.44;37.42
29121;BME280;16191;49.548;8.658;2023-07-08T05:14:24;100416.97;;;23.47;37.11
29121;BME280;16191;49.548;8.658;2023-07-08T05:16:51;100416.81;;;23.49;36.78
29121;BME280;16191;49.548;8.658;2023-07-08T05:19:17;100417.38;;;23.62;36.63
29121;BME280;16191;49.548;8.658;2023-07-08T05:21:45;100417.81;;;23.67;36.92
29121;BME280;16191;49.548;8.658;2023-07-08T05:24:11;100426.03;;;23.83;36.01
29121;BME280;16191;49.548;8.658;2023-07-08T05:26:38;100430.25;;;23.86;36.33
29121;BME280;16191;49.548;8.658;2023-07-08T05:29:05;100433.19;;;23.92;37.51
29121;BME280;16191;49.548;8.658;2023-07-08T05:31:33;100435.69;;;24.04;36.55
29121;BME280;16191;49.548;8.658;2023-07-08T05:34:03;100434.09;;;24.30;36.03
29121;BME280;16191;49.548;8.658;2023-07-08T05:36:29;100434.06;;;24.40;35.40
29121;BME280;16191;49.548;8.658;2023-07-08T05:38:56;100434.06;;;24.40;35.86
29121;BME280;16191;49.548;8.658;2023-07-08T05:41:23;100436.44;;;24.43;36.19
29121;BME280;16191;49.548;8.658;2023-07-08T05:43:50;100450.34;;;24.37;37.42
29121;BME280;16191;49.548;8.658;2023-07-08T05:46:16;100459.06;;;24.39;38.78
29121;BME280;16191;49.548;8.658;2023-07-08T05:48:43;100457.53;;;24.36;38.63
29121;BME280;16191;49.548;8.658;2023-07-08T05:51:10;100456.69;;;24.36;39.51
29121;BME280;16191;49.548;8.658;2023-07-08T05:53:37;100473.38;;;24.38;42.97
29121;BME280;16191;49.548;8.658;2023-07-08T05:56:03;100486.66;;;23.72;47.40
29121;BME280;16191;49.548;8.658;2023-07-08T05:58:31;100495.34;;;22.95;49.74
29121;BME280;16191;49.548;8.658;2023-07-08T06:00:57;100494.03;;;23.30;49.62
29121;BME280;16191;49.548;8.658;2023-07-08T06:03:25;100502.75;;;23.32;50.31
29121;BME280;16191;49.548;8.658;2023-07-08T06:05:53;100536.03;;;23.07;52.34
29121;BME280;16191;49.548;8.658;2023-07-08T06:08:20;100555.63;;;23.06;52.35
29121;BME280;16191;49.548;8.658;2023-07-08T06:10:47;100560.69;;;23.18;52.27
29121;BME280;16191;49.548;8.658;2023-07-08T06:13:14;100559.63;;;23.40;50.02
29121;BME280;16191;49.548;8.658;2023-07-08T06:15:41;100562.16;;;23.42;50.25
29121;BME280;16191;49.548;8.658;2023-07-08T06:18:08;100562.16;;;23.42;50.63
29121;BME280;16191;49.548;8.658;2023-07-08T06:20:35;100578.22;;;23.11;52.81
29121;BME280;16191;49.548;8.658;2023-07-08T06:23:02;100573.53;;;23.34;51.02
29121;BME280;16191;49.548;8.658;2023-07-08T06:25:29;100579.66;;;23.25;51.86
29121;BME280;16191;49.548;8.658;2023-07-08T06:27:56;100582.63;;;23.32;51.78
29121;BME280;16191;49.548;8.658;2023-07-08T06:30:23;100567.63;;;23.40;51.33
29121;BME280;16191;49.548;8.658;2023-07-08T06:32:49;100579.19;;;23.60;51.45
29121;BME280;16191;49.548;8.658;2023-07-08T06:35:17;100562.41;;;23.79;51.25
29121;BME280;16191;49.548;8.658;2023-07-08T06:37:44;100556.50;;;23.75;52.50
29121;BME280;16191;49.548;8.658;2023-07-08T06:40:11;100553.97;;;23.93;52.78
29121;BME280;16191;49.548;8.658;2023-07-08T06:42:38;100546.66;;;24.05;51.95
29121;BME280;16191;49.548;8.658;2023-07-08T06:45:12;100550.88;;;24.07;51.23
29121;BME280;16191;49.548;8.658;2023-07-08T06:47:38;100543.44;;;24.11;50.01
29121;BME280;16191;49.548;8.658;2023-07-08T06:50:06;100545.13;;;24.12;47.36
29121;BME280;16191;49.548;8.658;2023-07-08T06:52:33;100534.31;;;24.23;47.79
29121;BME280;16191;49.548;8.658;2023-07-08T06:55:05;100531.22;;;24.27;47.43
29121;BME280;16191;49.548;8.658;2023-07-08T06:57:32;100524.06;;;24.38;46.29
29121;BME280;16191;49.548;8.658;2023-07-08T06:59:59;100525.19;;;24.35;46.78
29121;BME280;16191;49.548;8.658;2023-07-08T07:02:27;100535.16;;;24.23;47.17
29121;BME280;16191;49.548;8.658;2023-07-08T07:04:54;100546.09;;;24.40;48.22
29121;BME280;16191;49.548;8.658;2023-07-08T07:07:22;100535.97;;;24.43;47.90
29121;BME280;16191;49.548;8.658;2023-07-08T07:09:48;100528.75;;;24.63;47.42
29121;BME280;16191;49.548;8.658;2023-07-08T07:12:15;100523.78;;;24.78;46.51
29121;BME280;16191;49.548;8.658;2023-07-08T07:14:41;100528.66;;;24.82;46.74
29121;BME280;16191;49.548;8.658;2023-07-08T07:17:11;100528.59;;;24.92;46.60
29121;BME280;16191;49.548;8.658;2023-07-08T07:19:38;100531.34;;;24.82;48.22
29121;BME280;16191;49.548;8.658;2023-07-08T07:22:05;100534.94;;;25.01;48.34
29121;BME280;16191;49.548;8.658;2023-07-08T07:24:32;100528.47;;;25.03;47.68
29121;BME280;16191;49.548;8.658;2023-07-08T07:26:59;100527.41;;;24.86;46.94
29121;BME280;16191;49.548;8.658;2023-07-08T07:29:25;100531.72;;;24.97;46.19
29121;BME280;16191;49.548;8.658;2023-07-08T07:31:52;100544.47;;;24.93;46.58
29121;BME280;16191;49.548;8.658;2023-07-08T07:34:19;100554.19;;;25.04;46.48
29121;BME280;16191;49.548;8.658;2023-07-08T07:36:45;100552.91;;;25.08;46.34
29121;BME280;16191;49.548;8.658;2023-07-08T07:39:12;100553.25;;;25.13;46.45
29121;BME280;16191;49.548;8.658;2023-07-08T07:41:39;100559.69;;;25.20;46.85
29121;BME280;16191;49.548;8.658;2023-07-08T07:44:05;100556.44;;;25.26;46.68
29121;BME280;16191;49.548;8.658;2023-07-08T07:46:32;100561.91;;;25.52;47.04
29121;BME280;16191;49.548;8.658;2023-07-08T07:48:59;100562.75;;;25.53;47.64
29121;BME280;16191;49.548;8.658;2023-07-08T07:51:26;100574.19;;;25.45;47.99
29121;BME280;16191;49.548;8.658;2023-07-08T07:53:52;100572.34;;;25.73;47.74
29121;BME280;16191;49.548;8.658;2023-07-08T07:56:19;100573.03;;;25.75;46.79
29121;BME280;16191;49.548;8.658;2023-07-08T07:58:46;100567.44;;;26.04;47.25
29121;BME280;16191;49.548;8.658;2023-07-08T08:01:12;100567.63;;;26.28;47.32
29121;BME280;16191;49.548;8.658;2023-07-08T08:03:40;100566.91;;;26.18;47.26
29121;BME280;16191;49.548;8.658;2023-07-08T08:06:06;100567.59;;;26.46;46.99
29121;BME280;16191;49.548;8.658;2023-07-08T08:08:33;100571.25;;;26.19;47.01
29121;BME280;16191;49.548;8.658;2023-07-08T08:11:03;100578.78;;;26.42;47.29
29121;BME280;16191;49.548;8.658;2023-07-08T08:13:30;100576.78;;;26.70;46.62
29121;BME280;16191;49.548;8.658;2023-07-08T08:15:57;100583.97;;;26.69;47.12
29121;BME280;16191;49.548;8.658;2023-07-08T08:18:25;100584.06;;;26.85;47.15
29121;BME280;16191;49.548;8.658;2023-07-08T08:20:52;100588.94;;;26.90;47.06
29121;BME280;16191;49.548;8.658;2023-07-08T08:23:19;100598.66;;;26.21;47.61
29121;BME280;16191;49.548;8.658;2023-07-08T08:25:45;100594.38;;;26.28;48.28
29121;BME280;16191;49.548;8.658;2023-07-08T08:28:12;100595.69;;;26.24;48.59
29121;BME280;16191;49.548;8.658;2023-07-08T08:30:39;100608.81;;;25.65;50.37
29121;BME280;16191;49.548;8.658;2023-07-08T08:33:05;100605.84;;;26.03;50.10
29121;BME280;16191;49.548;8.658;2023-07-08T08:35:32;100602.06;;;26.41;49.17
29121;BME280;16191;49.548;8.658;2023-07-08T08:37:59;100602.81;;;26.16;49.89
29121;BME280;16191;49.548;8.658;2023-07-08T08:40:26;100598.31;;;26.16;50.17
29121;BME280;16191;49.548;8.658;2023-07-08T08:42:57;100603.03;;;26.40;50.06
29121;BME280;16191;49.548;8.658;2023-07-08T08:45:27;100600.94;;;26.78;48.86
29121;BME280;16191;49.548;8.658;2023-07-08T08:48:00;100605.47;;;26.77;48.51
29121;BME280;16191;49.548;8.658;2023-07-08T08:53:16;100608.09;;;26.95;48.39
29121;BME280;16191;49.548;8.658;2023-07-08T08:55:46;100601.91;;;26.94;48.21
29121;BME280;16191;49.548;8.658;2023-07-08T08:58:40;100601.38;;;27.33;48.31
29121;BME280;16191;49.548;8.658;2023-07-08T09:01:12;100601.53;;;27.74;47.29
29121;BME280;16191;49.548;8.658;2023-07-08T09:04:11;100592.75;;;27.47;48.14
29121;BME280;16191;49.548;8.658;2023-07-08T09:06:42;100597.72;;;27.84;46.06
29121;BME280;16191;49.548;8.658;2023-07-08T09:09:24;100600.22;;;27.70;46.29
29121;BME280;16191;49.548;8.658;2023-07-08T09:11:57;100588.66;;;28.18;46.29
29121;BME280;16191;49.548;8.658;2023-07-08T09:14:28;100587.66;;;27.86;45.88
29121;BME280;16191;49.548;8.658;2023-07-08T09:19:35;100581.97;;;28.06;46.33
29121;BME280;16191;49.548;8.658;2023-07-08T09:22:15;100577.78;;;28.52;44.88
29121;BME280;16191;49.548;8.658;2023-07-08T09:24:51;100580.28;;;28.37;45.68
29121;BME280;16191;49.548;8.658;2023-07-08T09:27:20;100592.31;;;28.82;44.52
29121;BME280;16191;49.548;8.658;2023-07-08T09:29:47;100583.81;;;28.38;44.90
29121;BME280;16191;49.548;8.658;2023-07-08T09:32:19;100579.53;;;28.92;44.34
29121;BME280;16191;49.548;8.658;2023-07-08T09:34:51;100577.81;;;29.07;43.79
29121;BME280;16191;49.548;8.658;2023-07-08T09:37:33;100571.91;;;29.12;43.58
29121;BME280;16191;49.548;8.658;2023-07-08T09:40:49;100563.16;;;29.80;42.40
29121;BME280;16191;49.548;8.658;2023-07-08T09:42:52;100561.50;;;29.93;42.06
29121;BME280;16191;49.548;8.658;2023-07-08T09:45:23;100559.50;;;29.73;41.47
29121;BME280;16191;49.548;8.658;2023-07-08T09:47:55;100567.19;;;30.07;40.84
29121;BME280;16191;49.548;8.658;2023-07-08T09:50:25;100571.75;;;30.58;39.75
29121;BME280;16191;49.548;8.658;2023-07-08T09:52:55;100562.47;;;30.09;40.15
29121;BME280;16191;49.548;8.658;2023-07-08T09:55:24;100564.63;;;30.65;39.66
29121;BME280;16191;49.548;8.658;2023-07-08T09:57:52;100561.94;;;30.95;39.35
29121;BME280;16191;49.548;8.658;2023-07-08T10:00:29;100556.81;;;30.71;39.73
29121;BME280;16191;49.548;8.658;2023-07-08T10:02:58;100555.94;;;30.99;39.51
29121;BME280;16191;49.548;8.658;2023-07-08T10:05:29;100558.59;;;30.26;40.44
29121;BME280;16191;49.548;8.658;2023-07-08T10:07:58;100558.00;;;30.83;39.36
29121;BME280;16191;49.548;8.658;2023-07-08T10:10:31;100561.63;;;31.19;39.60
29121;BME280;16191;49.548;8.658;2023-07-08T10:13:04;100567.13;;;31.11;39.44
29121;BME280;16191;49.548;8.658;2023-07-08T10:15:42;100563.28;;;31.92;38.42
29121;BME280;16191;49.548;8.658;2023-07-08T10:18:13;100558.59;;;31.65;38.62
29121;BME280;16191;49.548;8.658;2023-07-08T10:20:57;100556.28;;;31.77;38.42
29121;BME280;16191;49.548;8.658;2023-07-08T10:26:21;100561.59;;;31.70;37.78
29121;BME280;16191;49.548;8.658;2023-07-08T10:29:15;100566.63;;;31.08;38.80
29121;BME280;16191;49.548;8.658;2023-07-08T10:37:07;100561.56;;;32.62;37.52
29121;BME280;16191;49.548;8.658;2023-07-08T10:42:22;100564.56;;;33.08;35.91
29121;BME280;16191;49.548;8.658;2023-07-08T10:45:26;100563.84;;;32.58;36.49
29121;BME280;16191;49.548;8.658;2023-07-08T10:48:06;100560.81;;;32.40;37.07
29121;BME280;16191;49.548;8.658;2023-07-08T10:54:04;100554.91;;;33.40;34.57
29121;BME280;16191;49.548;8.658;2023-07-08T10:56:50;100545.09;;;33.26;34.42
29121;BME280;16191;49.548;8.658;2023-07-08T10:59:34;100553.53;;;33.16;34.86
29121;BME280;16191;49.548;8.658;2023-07-08T11:02:43;100546.31;;;34.17;33.52
29121;BME280;16191;49.548;8.658;2023-07-08T11:05:28;100535.06;;;34.33;32.92
29121;BME280;16191;49.548;8.658;2023-07-08T11:08:07;100544.59;;;33.09;34.92
29121;BME280;16191;49.548;8.658;2023-07-08T11:10:46;100546.16;;;33.38;34.57
29121;BME280;16191;49.548;8.658;2023-07-08T11:13:28;100536.44;;;34.69;33.27
29121;BME280;16191;49.548;8.658;2023-07-08T11:16:10;100529.97;;;34.70;32.76
29121;BME280;16191;49.548;8.658;2023-07-08T11:21:19;100523.53;;;33.65;34.11
29121;BME280;16191;49.548;8.658;2023-07-08T11:23:56;100531.63;;;33.46;34.54
29121;BME280;16191;49.548;8.658;2023-07-08T11:26:33;100519.34;;;33.56;34.56
29121;BME280;16191;49.548;8.658;2023-07-08T11:29:13;100524.97;;;32.94;35.28
29121;BME280;16191;49.548;8.658;2023-07-08T11:31:42;100509.66;;;33.95;33.58
29121;BME280;16191;49.548;8.658;2023-07-08T11:34:10;100515.69;;;34.36;33.66
29121;BME280;16191;49.548;8.658;2023-07-08T11:36:39;100519.66;;;33.94;33.68
29121;BME280;16191;49.548;8.658;2023-07-08T11:39:27;100508.78;;;34.47;32.59
29121;BME280;16191;49.548;8.658;2023-07-08T11:44:35;100506.56;;;35.71;31.37
29121;BME280;16191;49.548;8.658;2023-07-08T11:47:15;100512.50;;;35.55;31.65
29121;BME280;16191;49.548;8.658;2023-07-08T11:49:44;100501.88;;;35.16;31.49
29121;BME280;16191;49.548;8.658;2023-07-08T11:52:16;100504.59;;;34.51;32.17
29121;BME280;16191;49.548;8.658;2023-07-08T11:54:48;100503.91;;;35.27;31.23
29121;BME280;16191;49.548;8.658;2023-07-08T11:57:34;100503.84;;;35.96;30.36
29121;BME280;16191;49.548;8.658;2023-07-08T12:02:48;100502.19;;;36.82;28.88
29121;BME280;16191;49.548;8.658;2023-07-08T12:05:15;100496.06;;;36.50;29.67
29121;BME280;16191;49.548;8.658;2023-07-08T12:07:47;100493.75;;;35.09;31.38
29121;BME280;16191;49.548;8.658;2023-07-08T12:10:22;100498.59;;;37.18;28.32
29121;BME280;16191;49.548;8.658;2023-07-08T12:12:52;100494.56;;;36.72;28.68
29121;BME280;16191;49.548;8.658;2023-07-08T12:15:30;100480.84;;;35.49;30.06
29121;BME280;16191;49.548;8.658;2023-07-08T12:18:19;100485.50;;;35.35;29.97
29121;BME280;16191;49.548;8.658;2023-07-08T12:20:52;100478.63;;;35.33;29.95
29121;BME280;16191;49.548;8.658;2023-07-08T12:23:21;100475.97;;;36.87;27.85
29121;BME280;16191;49.548;8.658;2023-07-08T12:25:49;100481.50;;;36.81;28.90
29121;BME280;16191;49.548;8.658;2023-07-08T12:28:16;100470.56;;;36.08;28.66
29121;BME280;16191;49.548;8.658;2023-07-08T12:30:44;100479.25;;;36.78;27.73
29121;BME280;16191;49.548;8.658;2023-07-08T12:33:18;100474.53;;;37.74;26.93
29121;BME280;16191;49.548;8.658;2023-07-08T12:35:45;100465.06;;;38.12;27.37
29121;BME280;16191;49.548;8.658;2023-07-08T12:38:23;100459.03;;;38.85;25.59
29121;BME280;16191;49.548;8.658;2023-07-08T12:41:02;100458.50;;;39.57;24.64
29121;BME280;16191;49.548;8.658;2023-07-08T12:43:31;100470.38;;;39.84;24.27
29121;BME280;16191;49.548;8.658;2023-07-08T12:45:58;100479.66;;;38.29;25.29
29121;BME280;16191;49.548;8.658;2023-07-08T12:48:25;100476.59;;;35.85;27.84
29121;BME280;16191;49.548;8.658;2023-07-08T12:50:51;100470.31;;;36.52;26.97
29121;BME280;16191;49.548;8.658;2023-07-08T12:53:18;100481.97;;;36.78;26.55
29121;BME280;16191;49.548;8.658;2023-07-08T12:55:45;100467.66;;;36.27;27.44
29121;BME280;16191;49.548;8.658;2023-07-08T12:58:33;100472.91;;;36.22;27.63
29121;BME280;16191;49.548;8.658;2023-07-08T13:01:02;100481.25;;;37.00;26.87
29121;BME280;16191;49.548;8.658;2023-07-08T13:03:35;100480.75;;;36.73;26.89
29121;BME280;16191;49.548;8.658;2023-07-08T13:06:04;100476.44;;;37.14;27.04
29121;BME280;16191;49.548;8.658;2023-07-08T13:08:35;100480.09;;;38.61;25.41
29121;BME280;16191;49.548;8.658;2023-07-08T13:11:03;100465.50;;;39.69;24.17
29121;BME280;16191;49.548;8.658;2023-07-08T13:13:39;100473.19;;;40.06;24.21
29121;BME280;16191;49.548;8.658;2023-07-08T13:16:09;100478.09;;;39.70;24.32
29121;BME280;16191;49.548;8.658;2023-07-08T13:18:39;100476.47;;;40.41;23.72
29121;BME280;16191;49.548;8.658;2023-07-08T13:21:12;100472.22;;;40.51;22.85
29121;BME280;16191;49.548;8.658;2023-07-08T13:23:40;100478.34;;;40.80;22.11
29121;BME280;16191;49.548;8.658;2023-07-08T13:26:14;100468.63;;;40.50;22.72
29121;BME280;16191;49.548;8.658;2023-07-08T13:28:42;100472.88;;;39.69;24.30
29121;BME280;16191;49.548;8.658;2023-07-08T13:31:15;100472.22;;;38.77;25.44
29121;BME280;16191;49.548;8.658;2023-07-08T13:33:48;100481.03;;;38.55;25.98
29121;BME280;16191;49.548;8.658;2023-07-08T13:36:23;100477.13;;;39.60;24.64
29121;BME280;16191;49.548;8.658;2023-07-08T13:38:50;100475.38;;;38.97;25.28